»·PEaware :: SWA4694 KOKC-KMDW

SWA4694 :: KOKC-KMDW

FLIGHT INFORMATION

Flight Status: Arrived
Operator:
Southwest Airlines
More flights by this operator :: More flights under this callsign
Pilot: Jamyson Dore (13674)
Aircraft: BOEING 737-300
(B733)
More flights by this aircraft type
Origin: KOKC Will Rogers World
United States
Destination: KMDW Chicago-Midway
United States
More flights between these airports :: More routes between these airports
Route: TRUPR2 DRLER MAGOO ENDEE4
File this flight plan on PilotEdge
Remarks: PBN / A1B3B4B5D3D4 DOF / 170604 REG / N372SB EET / KZKC0002 KZAU0104 OPR / SWA RMK / TCAS SIMBRIEF
Altitude:
(Current/Filed)
33,000ft
Speed:
(Current/Filed)
426kts
Departed: 03-Jun-17 10:40 PM
Arrived: 04-Jun-17 12:16 AM
Distance/Time
Traveled:
600nm/1:36
Distance/Time
To Go:
Arrived

Flight Plot

Page will automatically refresh every two minutes.

Flight plan parsing failed; only flown route is shown


Map Options




Map Legend


Flown Route
Filed Route
Departure Airport
Arrival Airport
Navaid (VOR, NDB)
Fix

Horizontal Profiles

Position Reports

Time Latitude Longitude Heading Altitude Ground
Speed
03-Jun-17 22:14 35.394829 -97.598915 360 1300ft 0kts
03-Jun-17 22:15 35.394829 -97.598915 360 1300ft 0kts
03-Jun-17 22:16 35.394829 -97.598915 360 1300ft 0kts
03-Jun-17 22:17 35.394829 -97.598915 360 1300ft 0kts
03-Jun-17 22:18 35.394829 -97.598915 360 1300ft 0kts
03-Jun-17 22:19 35.394829 -97.598915 360 1300ft 0kts
03-Jun-17 22:20 35.394829 -97.598915 360 1300ft 0kts
03-Jun-17 22:21 35.394829 -97.598915 360 1300ft 0kts
03-Jun-17 22:22 35.394829 -97.598915 360 1300ft 0kts
03-Jun-17 22:23 35.394829 -97.598915 360 1300ft 0kts
03-Jun-17 22:24 35.394829 -97.598915 360 1300ft 0kts
03-Jun-17 22:25 35.394829 -97.598915 360 1300ft 0kts
03-Jun-17 22:26 35.394829 -97.598915 360 1300ft 0kts
03-Jun-17 22:27 35.394829 -97.598915 360 1300ft 0kts
03-Jun-17 22:28 35.394829 -97.598915 360 1300ft 0kts
03-Jun-17 22:29 35.394829 -97.598915 360 1300ft 0kts
03-Jun-17 22:30 35.394829 -97.598915 360 1300ft 0kts
03-Jun-17 22:31 35.394829 -97.598915 360 1300ft 0kts
03-Jun-17 22:32 35.394829 -97.598915 360 1300ft 0kts
03-Jun-17 22:33 35.394664 -97.598915 359 1300ft 3kts
03-Jun-17 22:34 35.394355 -97.598915 359 1300ft 0kts
03-Jun-17 22:35 35.394355 -97.598915 359 1300ft 0kts
03-Jun-17 22:36 35.394355 -97.598915 359 1300ft 0kts
03-Jun-17 22:37 35.394359 -97.598915 357 1300ft 0kts
03-Jun-17 22:38 35.394600 -97.599874 282 1300ft 8kts
03-Jun-17 22:39 35.397032 -97.603962 348 1300ft 23kts
03-Jun-17 22:40 35.404549 -97.603996 359 1300ft 27kts
03-Jun-17 22:41 35.405047 -97.605742 179 1300ft 0kts
03-Jun-17 22:42 35.399288 -97.605742 179 1300ft 93kts
03-Jun-17 22:43 35.365775 -97.605823 176 2050ft 172kts
03-Jun-17 22:44 35.336963 -97.564671 83 3978ft 199kts
03-Jun-17 22:45 35.376288 -97.511315 38 6694ft 197kts
03-Jun-17 22:46 35.428722 -97.457706 48 7500ft 295kts
03-Jun-17 22:47 35.475146 -97.373376 58 10267ft 314kts
03-Jun-17 22:48 35.521827 -97.272354 60 11907ft 370kts
03-Jun-17 22:49 35.572353 -97.160691 60 14678ft 386kts
03-Jun-17 22:50 35.624888 -97.044081 60 17307ft 402kts
03-Jun-17 22:51 35.679779 -96.922228 59 19746ft 417kts
03-Jun-17 22:52 35.753881 -96.811680 44 21992ft 430kts
03-Jun-17 22:53 35.837169 -96.704347 44 24039ft 444kts
03-Jun-17 22:54 35.922694 -96.593494 44 25860ft 457kts
03-Jun-17 22:55 36.011002 -96.478640 44 27494ft 470kts
03-Jun-17 22:56 36.100620 -96.361662 44 29498ft 468kts
03-Jun-17 22:57 36.185721 -96.250282 45 31154ft 467kts
03-Jun-17 22:58 36.273701 -96.134664 45 32766ft 465kts
03-Jun-17 22:59 36.362143 -96.018023 45 32976ft 461kts
03-Jun-17 23:00 36.449017 -95.903057 45 33003ft 463kts
03-Jun-17 23:01 36.535782 -95.787823 45 33012ft 461kts
03-Jun-17 23:02 36.622441 -95.672327 45 32982ft 460kts
03-Jun-17 23:03 36.709197 -95.556290 45 33008ft 461kts
03-Jun-17 23:04 36.796004 -95.439774 45 33004ft 461kts
03-Jun-17 23:05 36.881084 -95.325097 46 32978ft 461kts
03-Jun-17 23:06 36.967437 -95.208157 46 33007ft 461kts
03-Jun-17 23:07 37.053251 -95.091739 46 33005ft 461kts
03-Jun-17 23:08 37.138033 -94.976572 43 32984ft 469kts
03-Jun-17 23:09 37.225582 -94.857058 43 33008ft 468kts
03-Jun-17 23:10 37.313054 -94.737106 42 33032ft 464kts
03-Jun-17 23:11 37.400351 -94.616973 43 32993ft 470kts
03-Jun-17 23:12 37.487182 -94.497002 43 32973ft 467kts
03-Jun-17 23:13 37.574014 -94.376603 43 32998ft 468kts
03-Jun-17 23:14 37.659185 -94.257780 43 32996ft 468kts
03-Jun-17 23:15 37.745767 -94.136814 43 33020ft 467kts
03-Jun-17 23:16 37.832393 -94.015348 43 33024ft 468kts
03-Jun-17 23:17 37.919098 -93.893311 43 33023ft 468kts
03-Jun-17 23:18 38.005553 -93.771155 43 33023ft 467kts
03-Jun-17 23:19 38.091214 -93.649648 43 32994ft 465kts
03-Jun-17 23:20 38.175012 -93.530737 43 33033ft 469kts
03-Jun-17 23:21 38.261030 -93.407828 43 33021ft 467kts
03-Jun-17 23:22 38.345321 -93.286680 44 33020ft 468kts
03-Jun-17 23:23 38.431116 -93.163072 44 33025ft 468kts
03-Jun-17 23:24 38.517105 -93.038769 44 33023ft 468kts
03-Jun-17 23:25 38.602058 -92.915484 44 33023ft 467kts
03-Jun-17 23:26 38.687538 -92.790950 44 33024ft 467kts
03-Jun-17 23:27 38.772516 -92.666661 44 33023ft 467kts
03-Jun-17 23:28 38.857271 -92.542224 44 33015ft 468kts
03-Jun-17 23:29 38.942178 -92.417038 44 33024ft 466kts
03-Jun-17 23:30 39.023400 -92.296655 45 33017ft 466kts
03-Jun-17 23:31 39.106598 -92.172962 45 33012ft 467kts
03-Jun-17 23:32 39.191173 -92.047203 45 33024ft 466kts
03-Jun-17 23:33 39.275734 -91.920571 45 33023ft 466kts
03-Jun-17 23:34 39.359550 -91.794557 45 33024ft 466kts
03-Jun-17 23:35 39.443105 -91.668428 45 33023ft 466kts
03-Jun-17 23:36 39.526978 -91.541302 45 33047ft 463kts
03-Jun-17 23:37 39.610659 -91.413966 45 33039ft 468kts
03-Jun-17 23:38 39.692672 -91.288422 46 33016ft 465kts
03-Jun-17 23:39 39.775936 -91.160608 46 33026ft 466kts
03-Jun-17 23:40 39.859492 -91.031894 46 33023ft 466kts
03-Jun-17 23:41 39.940913 -90.905953 45 33025ft 466kts
03-Jun-17 23:42 40.023597 -90.777540 46 33023ft 466kts
03-Jun-17 23:43 40.112292 -90.661955 36 32994ft 460kts
03-Jun-17 23:44 40.194809 -90.567753 36 33024ft 460kts
03-Jun-17 23:45 40.289902 -90.458594 36 33016ft 462kts
03-Jun-17 23:46 40.385046 -90.348586 37 33023ft 460kts
03-Jun-17 23:47 40.473881 -90.245657 37 33024ft 461kts
03-Jun-17 23:48 40.568787 -90.134802 37 32999ft 461kts
03-Jun-17 23:49 40.663686 -90.022027 37 32996ft 460kts
03-Jun-17 23:50 40.757978 -89.909773 38 32996ft 461kts
03-Jun-17 23:51 40.846017 -89.787148 42 32997ft 463kts
03-Jun-17 23:52 40.914581 -89.643064 59 32999ft 471kts
03-Jun-17 23:53 40.975581 -89.491229 58 32995ft 470kts
03-Jun-17 23:54 41.034472 -89.344122 59 32977ft 470kts
03-Jun-17 23:55 41.091988 -89.200395 59 32970ft 470kts
03-Jun-17 23:56 41.150085 -89.057590 57 32959ft 455kts
03-Jun-17 23:57 41.211619 -88.910514 58 30519ft 487kts
03-Jun-17 23:58 41.275662 -88.753197 58 27290ft 487kts
03-Jun-17 23:59 41.338994 -88.597244 58 24397ft 478kts
04-Jun-17 00:00 41.407707 -88.452484 46 20968ft 459kts
04-Jun-17 00:01 41.482680 -88.332044 40 17792ft 434kts
04-Jun-17 00:02 41.586604 -88.309004 327 14066ft 383kts
04-Jun-17 00:03 41.621951 -88.423442 252 10243ft 364kts
04-Jun-17 00:04 41.546801 -88.476999 162 9319ft 312kts
04-Jun-17 00:05 41.492008 -88.403714 91 9360ft 306kts
04-Jun-17 00:06 41.507016 -88.303013 63 8798ft 260kts
04-Jun-17 00:07 41.540417 -88.220192 56 7756ft 252kts
04-Jun-17 00:08 41.575676 -88.142367 55 6766ft 246kts
04-Jun-17 00:09 41.610755 -88.066274 55 5786ft 241kts
04-Jun-17 00:10 41.645114 -87.991834 55 4804ft 237kts
04-Jun-17 00:11 41.679001 -87.918275 55 3928ft 232kts
04-Jun-17 00:12 41.712558 -87.844844 55 3961ft 236kts
04-Jun-17 00:13 41.746238 -87.770701 55 3957ft 236kts
04-Jun-17 00:14 41.759044 -87.687350 59 3954ft 226kts
04-Jun-17 00:15 41.804384 -87.635357 2 3347ft 213kts
04-Jun-17 00:16 41.826427 -87.684575 243 1846ft 181kts
04-Jun-17 00:17 41.799951 -87.733369 220 784ft 147kts
04-Jun-17 00:18 41.779563 -87.758660 185 627ft 25kts
04-Jun-17 00:19 41.779314 -87.754491 89 627ft 21kts
04-Jun-17 00:20 41.782038 -87.746696 87 627ft 24kts
04-Jun-17 00:21 41.782050 -87.746149 88 627ft 0kts
04-Jun-17 00:22 41.782050 -87.746149 88 627ft 0kts
04-Jun-17 00:23 41.782050 -87.746149 88 627ft 0kts
04-Jun-17 00:24 41.782050 -87.746149 88 627ft 0kts
04-Jun-17 00:25 41.782050 -87.746149 88 627ft 0kts
04-Jun-17 00:26 41.782050 -87.746149 88 627ft 0kts
04-Jun-17 00:27 41.782050 -87.746149 88 627ft 0kts
04-Jun-17 00:28 41.782050 -87.746149 88 627ft 0kts

Navigation Log

Ident Type
Flight plan parsing failed, navigation log unavailable